Time;durP1;ratioP1;P1;durP2;ratioP2;P2;SDS_P1;SDS_P2;PMS_P1;PMS_P2;Temp;Humidity;BMP_temperature;BMP_pressure;BME280_temperature;BME280_humidity;BME280_pressure;Samples;Min_cycle;Max_cycle;Signal;HPM_P1;HPM_P2
2020/12/05 00:01:06;;;;;;;6.67;3.47;;;4.60;99.90;;;;;;5055983;28;20200;-92
2020/12/05 00:03:34;;;;;;;5.70;3.73;;;4.70;99.90;;;;;;5054169;28;20194;-92
2020/12/05 00:06:01;;;;;;;9.37;3.93;;;4.70;99.90;;;;;;5036855;28;20262;-88
2020/12/05 00:08:29;;;;;;;4.23;3.30;;;4.70;99.90;;;;;;5020846;28;20175;-92
2020/12/05 00:10:54;;;;;;;11.17;3.90;;;4.70;99.90;;;;;;5036873;28;20259;-89
2020/12/05 00:13:23;;;;;;;9.80;3.50;;;4.50;99.90;;;;;;5040952;28;20203;-89
2020/12/05 00:15:51;;;;;;;5.77;3.60;;;4.40;99.90;;;;;;5041379;28;20546;-89
2020/12/05 00:18:23;;;;;;;8.07;3.47;;;4.40;99.90;;;;;;5041053;28;20213;-89
2020/12/05 00:20:48;;;;;;;8.13;3.43;;;4.30;99.90;;;;;;5026916;28;20183;-91
2020/12/05 00:23:14;;;;;;;7.00;4.00;;;4.20;99.90;;;;;;5040055;28;20168;-92
2020/12/05 00:25:40;;;;;;;7.97;4.13;;;4.30;99.90;;;;;;5040316;28;20195;-90
2020/12/05 00:28:08;;;;;;;10.77;3.97;;;4.00;99.90;;;;;;5057478;28;20181;-90
2020/12/05 00:30:34;;;;;;;5.43;3.20;;;3.70;99.90;;;;;;5040482;28;20258;-90
2020/12/05 00:33:00;;;;;;;14.90;3.60;;;3.50;99.90;;;;;;5040937;28;20202;-91
2020/12/05 00:35:29;;;;;;;7.37;4.40;;;3.50;99.90;;;;;;5023315;28;20204;-90
2020/12/05 00:37:58;;;;;;;4.73;3.20;;;3.60;99.90;;;;;;5040506;28;20172;-91
2020/12/05 00:40:24;;;;;;;13.30;4.77;;;3.70;99.90;;;;;;5040430;28;20617;-92
2020/12/05 00:42:50;;;;;;;6.13;3.70;;;3.90;99.90;;;;;;5040266;28;20180;-91
2020/12/05 00:45:16;;;;;;;5.27;3.47;;;4.00;99.90;;;;;;5019383;28;20246;-91
2020/12/05 00:47:42;;;;;;;10.13;4.43;;;4.00;99.90;;;;;;5020277;28;20165;-91
2020/12/05 00:50:08;;;;;;;10.47;3.63;;;4.20;99.90;;;;;;5022552;28;20227;-91
2020/12/05 00:52:34;;;;;;;9.67;4.10;;;4.30;99.90;;;;;;5008181;28;20188;-91
2020/12/05 00:55:00;;;;;;;9.50;4.40;;;4.50;99.90;;;;;;5020724;28;20253;-91
2020/12/05 00:57:27;;;;;;;7.03;3.90;;;4.60;99.90;;;;;;5035981;28;20507;-91
2020/12/05 00:59:53;;;;;;;15.00;3.87;;;4.70;99.90;;;;;;5019864;28;20175;-91
2020/12/05 01:02:19;;;;;;;7.43;4.50;;;4.80;99.90;;;;;;5020308;28;20259;-91
2020/12/05 01:04:46;;;;;;;10.93;3.27;;;4.90;99.90;;;;;;5020032;28;20195;-91
2020/12/05 01:07:12;;;;;;;6.70;3.60;;;5.00;99.90;;;;;;5020650;28;20263;-91
2020/12/05 01:09:38;;;;;;;4.07;3.67;;;5.00;99.90;;;;;;5003772;28;20203;-91
2020/12/05 01:12:04;;;;;;;8.30;4.10;;;5.10;99.90;;;;;;5037706;28;20180;-89
2020/12/05 01:14:30;;;;;;;5.87;3.40;;;5.20;99.90;;;;;;5039108;28;20184;-91
2020/12/05 01:16:55;;;;;;;11.47;3.73;;;5.30;99.90;;;;;;5055079;28;20202;-91
2020/12/05 01:19:22;;;;;;;11.50;4.33;;;5.40;99.90;;;;;;5025399;28;20184;-90
2020/12/05 01:21:48;;;;;;;5.73;3.43;;;5.40;99.90;;;;;;5039209;28;20184;-90
2020/12/05 01:24:14;;;;;;;11.07;3.27;;;5.40;99.90;;;;;;5041520;28;20172;-90
2020/12/05 01:26:40;;;;;;;5.90;2.73;;;5.50;99.90;;;;;;5039396;28;20184;-90
2020/12/05 01:29:08;;;;;;;5.87;2.70;;;5.60;99.90;;;;;;5051176;28;20188;-90
2020/12/05 01:31:34;;;;;;;6.53;2.90;;;5.80;99.90;;;;;;5073947;28;20168;-91
2020/12/05 01:34:02;;;;;;;5.57;2.83;;;5.70;99.90;;;;;;5054896;28;20176;-91
2020/12/05 01:36:31;;;;;;;6.93;3.10;;;5.80;99.90;;;;;;5040247;28;20200;-91
2020/12/05 01:38:56;;;;;;;5.77;3.00;;;6.00;99.90;;;;;;5022104;28;20180;-91
2020/12/05 01:41:25;;;;;;;5.00;3.37;;;6.00;99.90;;;;;;5040872;28;20230;-91
2020/12/05 01:43:50;;;;;;;7.30;3.10;;;6.00;99.90;;;;;;5058751;28;20172;-91
2020/12/05 01:46:38;;;;;;;4.40;2.90;;;6.10;99.90;;;;;;5066353;28;20244;-91
2020/12/05 01:49:08;;;;;;;8.03;2.83;;;6.20;99.90;;;;;;5056883;28;20157;-91
2020/12/05 01:51:36;;;;;;;6.73;3.00;;;6.30;99.90;;;;;;5055291;28;20236;-90
2020/12/05 01:54:02;;;;;;;5.07;2.70;;;6.30;99.90;;;;;;5056881;28;20173;-91
2020/12/05 01:57:06;;;;;;;4.90;2.87;;;6.20;99.90;;;;;;5055414;28;20218;-91
2020/12/05 01:59:35;;;;;;;4.70;2.57;;;6.20;99.90;;;;;;5035135;28;20169;-92
2020/12/05 02:02:02;;;;;;;7.23;2.60;;;6.10;99.90;;;;;;5019020;28;20164;-91
2020/12/05 02:04:30;;;;;;;6.17;2.63;;;6.20;99.90;;;;;;5019329;28;20165;-91
2020/12/05 02:07:29;;;;;;;7.10;2.83;;;6.20;99.90;;;;;;5006147;28;20185;-91
2020/12/05 02:09:56;;;;;;;4.47;2.30;;;6.10;99.90;;;;;;5011437;28;20661;-92
2020/12/05 02:12:54;;;;;;;4.00;2.37;;;6.10;99.90;;;;;;5002042;28;20610;-91
2020/12/05 02:15:27;;;;;;;4.00;2.70;;;6.00;99.90;;;;;;5004216;28;20271;-92
2020/12/05 02:18:03;;;;;;;4.97;2.80;;;6.00;99.90;;;;;;5019488;28;20248;-90
2020/12/05 02:20:36;;;;;;;7.37;2.70;;;6.00;99.90;;;;;;5018235;28;20236;-90
2020/12/05 02:23:11;;;;;;;7.73;2.70;;;6.00;99.90;;;;;;5018863;28;20231;-91
2020/12/05 02:25:37;;;;;;;5.97;2.50;;;6.00;99.90;;;;;;5017341;28;20207;-91
2020/12/05 02:28:06;;;;;;;10.80;2.60;;;5.90;99.90;;;;;;5017670;28;20183;-92
2020/12/05 02:30:32;;;;;;;4.63;2.27;;;5.70;99.90;;;;;;5017548;28;20183;-91
2020/12/05 02:33:00;;;;;;;6.40;2.80;;;5.50;99.90;;;;;;5017042;28;20172;-90
2020/12/05 02:35:26;;;;;;;4.70;2.30;;;5.50;99.90;;;;;;5016256;28;20196;-91
2020/12/05 02:37:58;;;;;;;7.80;2.60;;;5.60;99.90;;;;;;5017003;28;20678;-91
2020/12/05 02:40:33;;;;;;;5.67;2.67;;;5.70;99.90;;;;;;5016998;28;20173;-91
2020/12/05 02:43:02;;;;;;;5.30;2.63;;;5.80;99.90;;;;;;5021927;28;20640;-91
2020/12/05 02:45:30;;;;;;;3.20;2.43;;;5.80;99.90;;;;;;5036257;28;20180;-91
2020/12/05 02:47:57;;;;;;;7.77;2.37;;;5.90;99.90;;;;;;5020101;28;20184;-91
2020/12/05 02:50:23;;;;;;;7.20;2.57;;;5.90;99.90;;;;;;5019880;28;20625;-91
2020/12/05 02:52:48;;;;;;;4.03;2.60;;;5.80;99.90;;;;;;5035443;28;20179;-90
2020/12/05 02:55:16;;;;;;;3.43;2.37;;;5.80;99.90;;;;;;5036785;28;20195;-91
2020/12/05 02:57:42;;;;;;;6.63;2.53;;;5.90;99.90;;;;;;5019723;28;20238;-91
2020/12/05 03:00:08;;;;;;;4.30;2.50;;;6.00;99.90;;;;;;5035844;28;20180;-91
2020/12/05 03:02:36;;;;;;;4.27;2.97;;;6.00;99.90;;;;;;5019157;28;20274;-91
2020/12/05 03:05:02;;;;;;;2.47;2.20;;;6.00;99.90;;;;;;5034458;28;20603;-91
2020/12/05 03:07:28;;;;;;;4.80;2.40;;;6.10;99.90;;;;;;5051876;28;20629;-93
2020/12/05 03:09:54;;;;;;;4.37;2.60;;;6.20;99.90;;;;;;5018340;28;20179;-92
2020/12/05 03:12:22;;;;;;;9.30;2.40;;;6.20;99.90;;;;;;5051519;28;20173;-91
2020/12/05 03:14:47;;;;;;;5.87;2.70;;;6.30;99.90;;;;;;5035904;28;20183;-91
2020/12/05 03:17:13;;;;;;;3.60;2.77;;;6.30;99.90;;;;;;5035989;28;20187;-91
2020/12/05 03:19:39;;;;;;;4.13;2.93;;;6.30;99.90;;;;;;5034524;28;20168;-92
2020/12/05 03:22:05;;;;;;;8.50;2.93;;;6.40;99.90;;;;;;5035828;28;20172;-91
2020/12/05 03:24:30;;;;;;;6.50;2.90;;;6.40;99.90;;;;;;5034118;28;20213;-92
2020/12/05 03:26:56;;;;;;;4.73;2.93;;;6.40;99.90;;;;;;5018214;28;20637;-91
2020/12/05 03:29:24;;;;;;;4.63;2.53;;;6.40;99.90;;;;;;5051601;28;20164;-91
2020/12/05 03:32:01;;;;;;;3.43;2.63;;;6.40;99.90;;;;;;5051354;28;20175;-92
2020/12/05 03:34:27;;;;;;;4.80;2.67;;;6.40;99.90;;;;;;5036445;28;20172;-91
2020/12/05 03:36:53;;;;;;;3.20;2.20;;;6.40;99.90;;;;;;5052800;28;20222;-91
2020/12/05 03:39:18;;;;;;;3.57;2.60;;;6.50;99.90;;;;;;5058324;28;20164;-92
2020/12/05 03:41:44;;;;;;;9.20;2.60;;;6.50;99.90;;;;;;5057624;28;20164;-90
2020/12/05 03:44:13;;;;;;;3.40;2.40;;;6.60;99.90;;;;;;5073552;28;20205;-91
2020/12/05 03:46:39;;;;;;;6.33;2.47;;;6.60;99.90;;;;;;5034933;28;20204;-91
2020/12/05 03:49:06;;;;;;;4.57;2.57;;;6.60;99.90;;;;;;5034680;28;20168;-92
2020/12/05 03:51:34;;;;;;;5.00;2.77;;;6.60;99.90;;;;;;5034980;28;20644;-91
2020/12/05 03:54:00;;;;;;;5.70;2.70;;;6.40;99.90;;;;;;5034770;28;20230;-91
2020/12/05 03:56:28;;;;;;;5.63;3.00;;;6.50;99.90;;;;;;5053672;28;20208;-92
2020/12/05 03:59:01;;;;;;;8.13;2.70;;;6.30;99.90;;;;;;5058077;28;20164;-93
2020/12/05 04:01:27;;;;;;;3.80;2.73;;;6.30;99.90;;;;;;5049125;28;20188;-91
2020/12/05 04:03:53;;;;;;;3.53;2.83;;;6.30;99.90;;;;;;5034556;28;20663;-91
2020/12/05 04:06:21;;;;;;;4.30;2.70;;;6.20;99.90;;;;;;5035447;28;20306;-92
2020/12/05 04:08:49;;;;;;;6.17;2.97;;;6.30;99.90;;;;;;5035216;28;20172;-90
2020/12/05 04:11:15;;;;;;;3.57;2.87;;;6.30;99.90;;;;;;5034690;28;20172;-91
2020/12/05 04:13:41;;;;;;;3.30;2.97;;;6.20;99.90;;;;;;5017270;28;20207;-91
2020/12/05 04:16:06;;;;;;;4.93;3.00;;;6.20;99.90;;;;;;5050810;28;20199;-92
2020/12/05 04:18:32;;;;;;;7.40;3.20;;;6.10;99.90;;;;;;5034873;28;20222;-92
2020/12/05 04:21:01;;;;;;;5.40;3.10;;;6.10;99.90;;;;;;5050787;28;20270;-92
2020/12/05 04:23:26;;;;;;;5.70;3.63;;;6.00;99.90;;;;;;5034446;28;20184;-91
2020/12/05 04:25:54;;;;;;;4.43;3.30;;;6.00;99.90;;;;;;5050186;28;20245;-91
2020/12/05 04:28:20;;;;;;;7.80;3.13;;;6.10;99.90;;;;;;5034615;28;20168;-92
2020/12/05 04:30:46;;;;;;;5.97;3.40;;;6.10;99.90;;;;;;5018062;28;20211;-91
2020/12/05 04:33:11;;;;;;;9.13;4.40;;;6.10;99.90;;;;;;5033975;28;20226;-91
2020/12/05 04:35:39;;;;;;;6.40;3.37;;;6.30;99.90;;;;;;5034012;28;20551;-92
2020/12/05 04:38:05;;;;;;;5.23;3.77;;;6.20;99.90;;;;;;5033904;28;20242;-91
2020/12/05 04:40:33;;;;;;;6.93;3.87;;;6.20;99.90;;;;;;5034095;28;20201;-92
2020/12/05 04:43:04;;;;;;;5.83;3.90;;;6.30;99.90;;;;;;5033594;28;20180;-91
2020/12/05 04:45:30;;;;;;;3.77;3.47;;;6.20;99.90;;;;;;5034863;28;20181;-91
2020/12/05 04:47:57;;;;;;;4.87;4.27;;;6.10;99.90;;;;;;5033325;28;20192;-92
2020/12/05 04:50:23;;;;;;;4.03;3.67;;;6.00;99.90;;;;;;5033611;28;20251;-91
2020/12/05 04:52:51;;;;;;;7.27;4.63;;;6.10;99.90;;;;;;5034040;28;20226;-91
2020/12/05 04:55:21;;;;;;;4.27;3.87;;;6.00;99.90;;;;;;5034171;28;20258;-91
2020/12/05 04:57:56;;;;;;;5.27;4.40;;;6.00;99.90;;;;;;5042732;28;20180;-91
2020/12/05 05:00:21;;;;;;;8.60;4.00;;;6.00;99.90;;;;;;5045467;28;20168;-91
2020/12/05 05:02:48;;;;;;;5.70;4.97;;;6.00;99.90;;;;;;5036403;28;20219;-92
2020/12/05 05:05:14;;;;;;;6.13;4.50;;;6.00;99.90;;;;;;5054071;28;20188;-92
2020/12/05 05:07:51;;;;;;;4.63;4.23;;;5.90;99.90;;;;;;5055067;28;20160;-92
2020/12/05 05:10:29;;;;;;;4.80;4.13;;;5.80;99.90;;;;;;5052821;28;20187;-92
2020/12/05 05:13:12;;;;;;;9.03;4.43;;;5.70;99.90;;;;;;5038028;28;20184;-91
2020/12/05 05:15:39;;;;;;;6.97;4.30;;;5.60;99.90;;;;;;5053486;28;20203;-92
2020/12/05 05:18:04;;;;;;;8.47;4.80;;;5.60;99.90;;;;;;5043772;28;20178;-91
2020/12/05 05:20:39;;;;;;;5.50;4.50;;;5.50;99.90;;;;;;5038151;28;20168;-91
2020/12/05 05:23:20;;;;;;;5.30;4.77;;;5.40;99.90;;;;;;5054203;28;20172;-91
2020/12/05 05:26:03;;;;;;;4.20;3.80;;;5.30;99.90;;;;;;5039318;28;20191;-90
2020/12/05 05:28:30;;;;;;;4.83;4.30;;;5.30;99.90;;;;;;5038745;28;20191;-91
2020/12/05 05:31:03;;;;;;;4.73;4.30;;;5.30;99.90;;;;;;5053828;28;20171;-91
2020/12/05 05:33:39;;;;;;;6.60;4.13;;;5.20;99.90;;;;;;5038333;28;20235;-91
2020/12/05 05:36:19;;;;;;;6.37;4.00;;;5.20;99.90;;;;;;5037224;28;20219;-91
2020/12/05 05:39:04;;;;;;;10.03;7.73;;;5.20;99.90;;;;;;5038179;28;20202;-91
2020/12/05 05:41:31;;;;;;;7.33;6.33;;;5.20;99.90;;;;;;5037608;28;20613;-92
2020/12/05 05:44:00;;;;;;;34.83;22.70;;;5.20;99.90;;;;;;5036852;28;20203;-92
2020/12/05 05:46:28;;;;;;;8.63;6.30;;;5.20;99.90;;;;;;5036684;28;20172;-92
2020/12/05 05:48:56;;;;;;;15.67;9.97;;;5.10;99.90;;;;;;5037987;28;20226;-91
2020/12/05 05:52:00;;;;;;;12.20;7.90;;;5.10;99.90;;;;;;5020351;28;20179;-91
2020/12/05 05:54:27;;;;;;;13.80;9.27;;;5.10;99.90;;;;;;4958303;29;20178;-91
2020/12/05 05:57:15;;;;;;;28.07;24.10;;;5.10;99.90;;;;;;4941821;29;20233;-91
2020/12/05 05:59:45;;;;;;;15.37;13.07;;;4.90;99.90;;;;;;5008598;28;20223;-91
2020/12/05 06:02:12;;;;;;;14.20;9.00;;;4.80;99.90;;;;;;5037067;28;20168;-91
2020/12/05 06:04:44;;;;;;;9.50;8.60;;;4.70;99.90;;;;;;5050065;28;20176;-91
2020/12/05 06:07:18;;;;;;;22.77;15.83;;;4.60;99.90;;;;;;5059343;28;20260;-89
2020/12/05 06:09:44;;;;;;;27.60;16.30;;;4.60;99.90;;;;;;5058474;28;20212;-90
2020/12/05 06:12:22;;;;;;;12.20;9.93;;;4.50;99.90;;;;;;5044978;28;20630;-91
2020/12/05 06:14:50;;;;;;;11.57;10.57;;;4.50;99.90;;;;;;5037626;28;20180;-91
2020/12/05 06:17:20;;;;;;;13.50;11.10;;;4.40;99.90;;;;;;5019873;28;20176;-91
2020/12/05 06:19:47;;;;;;;14.63;9.90;;;4.40;99.90;;;;;;5037385;28;20512;-91
2020/12/05 06:22:20;;;;;;;288.17;115.47;;;4.40;99.90;;;;;;5049362;28;20235;-92
2020/12/05 06:25:01;;;;;;;292.90;104.27;;;4.30;99.90;;;;;;5059731;28;20192;-94
2020/12/05 06:27:29;;;;;;;60.50;38.27;;;4.30;99.90;;;;;;5056603;28;20188;-91
2020/12/05 06:29:56;;;;;;;21.77;15.97;;;4.30;99.90;;;;;;5035945;28;20222;-90
2020/12/05 06:32:46;;;;;;;15.83;9.57;;;4.40;99.90;;;;;;5036382;28;20208;-92
2020/12/05 06:35:17;;;;;;;10.13;5.77;;;4.40;99.90;;;;;;5052215;28;20610;-91
2020/12/05 06:37:43;;;;;;;65.00;24.37;;;4.40;99.90;;;;;;5036493;28;20210;-91
2020/12/05 06:40:09;;;;;;;7.33;4.60;;;4.40;99.90;;;;;;5020040;28;20210;-91
2020/12/05 06:42:40;;;;;;;14.60;10.63;;;4.50;99.90;;;;;;5019807;28;20180;-91
2020/12/05 06:45:28;;;;;;;16.47;10.07;;;4.60;99.90;;;;;;5037469;28;20259;-91
2020/12/05 06:48:21;;;;;;;16.33;8.73;;;4.60;99.90;;;;;;5035859;28;20176;-90
2020/12/05 06:50:47;;;;;;;6.43;3.77;;;4.60;99.90;;;;;;5036942;28;20684;-91
2020/12/05 06:53:19;;;;;;;12.90;8.60;;;4.50;99.90;;;;;;5036006;28;20172;-92
2020/12/05 06:55:45;;;;;;;113.53;63.60;;;4.50;99.90;;;;;;5036963;28;20223;-91
2020/12/05 06:58:30;;;;;;;18.03;15.53;;;4.50;99.90;;;;;;5036114;28;20180;-91
2020/12/05 07:01:00;;;;;;;8.57;7.73;;;4.50;99.90;;;;;;5036622;28;20203;-91
2020/12/05 07:03:37;;;;;;;15.43;11.70;;;4.40;99.90;;;;;;5035327;28;20240;-91
2020/12/05 07:06:03;;;;;;;8.77;7.80;;;4.40;99.90;;;;;;5020576;28;20180;-92
2020/12/05 07:08:34;;;;;;;7.87;6.40;;;4.50;99.90;;;;;;5036550;28;20174;-91
2020/12/05 07:11:12;;;;;;;4.33;3.93;;;4.50;99.90;;;;;;5035567;28;20632;-91
2020/12/05 07:13:44;;;;;;;6.60;4.13;;;4.40;99.90;;;;;;5034821;28;20540;-91
2020/12/05 07:16:21;;;;;;;8.10;4.37;;;4.40;99.90;;;;;;5035587;28;20192;-90
2020/12/05 07:18:58;;;;;;;12.37;6.53;;;4.40;99.90;;;;;;5036572;28;20159;-91
2020/12/05 07:21:26;;;;;;;4.63;4.33;;;4.40;99.90;;;;;;5018814;28;20194;-90
2020/12/05 07:23:55;;;;;;;16.03;3.67;;;4.40;99.90;;;;;;5036079;28;20200;-91
2020/12/05 07:26:21;;;;;;;6.53;3.80;;;4.60;99.90;;;;;;5035613;28;20184;-91
2020/12/05 07:28:49;;;;;;;8.97;8.10;;;4.70;99.90;;;;;;5035365;28;20175;-91
2020/12/05 07:31:16;;;;;;;8.53;4.67;;;4.80;99.90;;;;;;5037611;28;20197;-91
2020/12/05 07:33:43;;;;;;;4.23;3.83;;;4.90;99.90;;;;;;5035475;28;20224;-91
2020/12/05 07:36:11;;;;;;;7.70;4.83;;;5.10;99.90;;;;;;5035451;28;20249;-91
2020/12/05 07:38:43;;;;;;;8.70;7.83;;;5.20;99.90;;;;;;5035292;28;20607;-90
2020/12/05 07:41:18;;;;;;;8.07;3.87;;;5.30;99.90;;;;;;5040625;28;20235;-91
2020/12/05 07:43:44;;;;;;;5.23;3.60;;;5.20;99.90;;;;;;5037127;28;20172;-90
2020/12/05 07:46:14;;;;;;;6.63;3.20;;;5.30;99.90;;;;;;5033761;28;20182;-90
2020/12/05 07:48:40;;;;;;;6.80;3.90;;;5.40;99.90;;;;;;5033988;28;20172;-91
2020/12/05 07:51:20;;;;;;;6.17;4.10;;;5.50;99.90;;;;;;5034025;28;20195;-90
2020/12/05 07:53:47;;;;;;;6.50;3.40;;;5.50;99.90;;;;;;5034443;28;20175;-91
2020/12/05 07:56:19;;;;;;;4.50;3.33;;;5.60;99.90;;;;;;5018266;28;20196;-91
2020/12/05 07:58:53;;;;;;;4.67;3.63;;;5.70;99.90;;;;;;5035552;28;20208;-91
2020/12/05 08:01:31;;;;;;;4.87;3.20;;;5.60;99.90;;;;;;5051161;28;20286;-90
2020/12/05 08:04:33;;;;;;;5.93;3.27;;;5.70;99.90;;;;;;5035611;28;20199;-91
2020/12/05 08:07:13;;;;;;;10.93;3.57;;;5.60;99.90;;;;;;5036772;28;20156;-90
2020/12/05 08:09:39;;;;;;;6.63;3.20;;;5.50;99.90;;;;;;5037896;28;20168;-90
2020/12/05 08:12:11;;;;;;;16.43;7.37;;;5.50;99.90;;;;;;5032425;28;20230;-93
2020/12/05 08:14:41;;;;;;;185.40;56.83;;;5.50;99.90;;;;;;5034458;28;20229;-91
2020/12/05 08:17:13;;;;;;;233.60;76.97;;;5.60;99.90;;;;;;5031340;28;20200;-91
2020/12/05 08:19:42;;;;;;;129.20;45.13;;;5.70;99.90;;;;;;5014693;28;20165;-91
2020/12/05 08:22:08;;;;;;;15.80;9.57;;;5.80;99.90;;;;;;5014983;28;20184;-91
2020/12/05 08:25:07;;;;;;;6.77;3.93;;;5.90;99.90;;;;;;5014887;28;20192;-91
2020/12/05 08:27:35;;;;;;;4.57;3.87;;;5.80;99.90;;;;;;5010387;28;20239;-91
2020/12/05 08:30:05;;;;;;;7.07;4.10;;;5.70;99.90;;;;;;5028497;28;20183;-90
2020/12/05 08:32:31;;;;;;;6.90;3.30;;;5.80;99.90;;;;;;5079585;28;20215;-91
2020/12/05 08:35:13;;;;;;;9.77;3.60;;;5.80;99.90;;;;;;5079534;28;20187;-91
2020/12/05 08:37:45;;;;;;;5.13;3.37;;;5.80;99.90;;;;;;5058261;28;20184;-92
2020/12/05 08:40:20;;;;;;;15.07;10.90;;;5.80;99.90;;;;;;5006332;28;20180;-91
2020/12/05 08:42:50;;;;;;;6.43;3.00;;;5.80;99.90;;;;;;5020653;28;20534;-91
2020/12/05 08:45:20;;;;;;;4.57;4.07;;;6.00;99.90;;;;;;5037836;28;20527;-91
2020/12/05 08:47:47;;;;;;;4.17;3.00;;;6.10;99.90;;;;;;5044253;28;20156;-89
2020/12/05 08:50:32;;;;;;;4.63;3.23;;;6.20;99.90;;;;;;5061057;28;20167;-93
2020/12/05 08:53:00;;;;;;;7.63;4.63;;;6.50;99.90;;;;;;5041347;28;20160;-90
2020/12/05 08:55:28;;;;;;;8.50;4.73;;;6.50;99.90;;;;;;5022600;28;20672;-90
2020/12/05 08:57:59;;;;;;;7.83;5.60;;;6.60;99.90;;;;;;5019845;28;20204;-89
2020/12/05 09:00:26;;;;;;;4.10;3.00;;;6.60;99.90;;;;;;5029660;28;20172;-89
2020/12/05 09:02:52;;;;;;;7.17;6.57;;;6.60;99.90;;;;;;5008908;28;20179;-91
2020/12/05 09:05:18;;;;;;;8.90;3.50;;;6.70;99.90;;;;;;5040201;28;20184;-90
2020/12/05 09:07:59;;;;;;;5.90;2.40;;;6.60;99.90;;;;;;5005668;28;20275;-92
2020/12/05 09:10:27;;;;;;;15.37;2.93;;;6.70;99.90;;;;;;5058683;28;20160;-91
2020/12/05 09:13:06;;;;;;;5.70;3.03;;;6.60;99.90;;;;;;5059604;28;20267;-89
2020/12/05 09:15:32;;;;;;;6.30;2.57;;;6.60;99.90;;;;;;5066689;28;20211;-89
2020/12/05 09:18:01;;;;;;;4.40;2.70;;;6.70;99.90;;;;;;5025327;28;20168;-91
2020/12/05 09:20:27;;;;;;;6.20;2.37;;;6.70;99.90;;;;;;5050398;28;20180;-89
2020/12/05 09:22:57;;;;;;;7.67;2.50;;;6.60;99.90;;;;;;5040297;28;20235;-90
2020/12/05 09:25:38;;;;;;;4.90;2.50;;;6.50;99.90;;;;;;5040345;28;20200;-91
2020/12/05 09:28:11;;;;;;;4.70;2.50;;;6.30;99.90;;;;;;5031805;28;20202;-90
2020/12/05 09:30:37;;;;;;;3.37;2.27;;;6.50;99.90;;;;;;5033672;28;20275;-90
2020/12/05 09:33:15;;;;;;;9.23;2.13;;;6.50;99.90;;;;;;5048400;28;20172;-90
2020/12/05 09:35:41;;;;;;;31.43;17.50;;;6.60;99.90;;;;;;5043133;28;20180;-92
2020/12/05 09:38:07;;;;;;;134.90;47.17;;;6.70;99.90;;;;;;5030220;28;20202;-91
2020/12/05 09:40:33;;;;;;;13.97;8.60;;;6.80;99.90;;;;;;5029294;28;20521;-90
2020/12/05 09:43:00;;;;;;;5.10;2.90;;;7.00;99.90;;;;;;5025728;28;20183;-88
2020/12/05 09:45:26;;;;;;;13.50;2.60;;;7.10;99.90;;;;;;5041080;28;20183;-91
2020/12/05 09:47:52;;;;;;;3.03;2.30;;;6.80;99.90;;;;;;5041110;28;20207;-90
2020/12/05 09:50:18;;;;;;;3.20;1.93;;;6.90;99.90;;;;;;5043202;28;20273;-90
2020/12/05 09:52:44;;;;;;;3.70;2.27;;;6.80;99.90;;;;;;5027011;28;20173;-90
2020/12/05 09:55:10;;;;;;;4.73;2.27;;;6.60;99.90;;;;;;5043896;28;20256;-91
2020/12/05 09:57:36;;;;;;;2.70;2.03;;;6.60;99.90;;;;;;5031019;28;20278;-90
2020/12/05 10:00:07;;;;;;;2.57;2.37;;;6.60;99.90;;;;;;5059395;28;20222;-90
2020/12/05 10:02:35;;;;;;;5.60;2.20;;;6.40;99.90;;;;;;5040473;28;20164;-90
2020/12/05 10:05:01;;;;;;;6.10;4.40;;;6.30;99.90;;;;;;5038401;28;20164;-91
2020/12/05 10:07:27;;;;;;;10.17;7.83;;;6.30;99.90;;;;;;5022208;28;20180;-91
2020/12/05 10:09:52;;;;;;;9.03;8.13;;;6.20;99.90;;;;;;5023198;28;20262;-89
2020/12/05 10:12:18;;;;;;;4.80;3.27;;;6.20;99.90;;;;;;5036129;28;20337;-90
2020/12/05 10:14:44;;;;;;;4.67;2.97;;;6.40;99.90;;;;;;5022323;28;20199;-90
2020/12/05 10:17:09;;;;;;;11.83;2.27;;;6.50;99.90;;;;;;5021132;28;20218;-90
2020/12/05 10:19:35;;;;;;;4.27;1.87;;;6.60;99.90;;;;;;5022133;28;20171;-91
2020/12/05 10:22:00;;;;;;;6.97;3.60;;;6.50;99.90;;;;;;5021507;28;20197;-91
2020/12/05 10:24:26;;;;;;;4.90;4.17;;;6.50;99.90;;;;;;5016502;28;20717;-91
2020/12/05 10:26:53;;;;;;;6.43;2.17;;;6.60;99.90;;;;;;5025366;28;20184;-91
2020/12/05 10:29:25;;;;;;;3.13;2.83;;;6.80;99.90;;;;;;5038164;28;20535;-91
2020/12/05 10:31:53;;;;;;;6.20;5.67;;;6.80;99.90;;;;;;5020286;28;20172;-91
2020/12/05 10:34:20;;;;;;;12.90;8.93;;;6.90;99.90;;;;;;5036879;28;20179;-91
2020/12/05 10:36:47;;;;;;;7.73;3.17;;;6.90;99.90;;;;;;5036481;28;20200;-90
2020/12/05 10:39:13;;;;;;;4.10;2.23;;;7.00;99.90;;;;;;5020457;28;20629;-90
2020/12/05 10:41:39;;;;;;;6.90;2.40;;;7.00;99.90;;;;;;5047333;28;20676;-90
2020/12/05 10:44:06;;;;;;;8.20;4.60;;;7.30;99.90;;;;;;5036363;28;20187;-90
2020/12/05 10:46:32;;;;;;;9.73;7.30;;;7.40;99.90;;;;;;5035782;28;20176;-90
2020/12/05 10:48:58;;;;;;;6.00;1.83;;;7.50;99.90;;;;;;5025390;28;20195;-91
2020/12/05 10:51:24;;;;;;;7.47;2.60;;;7.60;99.90;;;;;;5040831;28;20242;-92
2020/12/05 10:53:51;;;;;;;2.50;1.73;;;7.80;99.90;;;;;;5024858;28;20637;-90
2020/12/05 10:56:17;;;;;;;5.80;2.20;;;7.80;99.90;;;;;;5045107;28;20223;-90
2020/12/05 10:58:42;;;;;;;6.73;5.50;;;7.80;99.90;;;;;;5040651;28;20176;-91
2020/12/05 11:01:08;;;;;;;2.13;1.83;;;7.80;99.90;;;;;;5041682;28;20236;-88
2020/12/05 11:03:33;;;;;;;3.50;1.30;;;8.00;99.90;;;;;;5040610;28;20179;-89
2020/12/05 11:05:59;;;;;;;4.03;3.17;;;8.00;99.90;;;;;;5029524;28;20191;-89
2020/12/05 11:08:25;;;;;;;5.03;3.70;;;8.00;99.90;;;;;;5025624;28;20179;-90
2020/12/05 11:10:50;;;;;;;5.03;2.97;;;8.00;99.90;;;;;;5023900;28;20176;-89
2020/12/05 11:13:17;;;;;;;6.20;3.07;;;7.80;99.90;;;;;;5023871;28;20179;-89
2020/12/05 11:15:42;;;;;;;3.47;1.80;;;7.70;99.90;;;;;;5054077;28;20207;-89
2020/12/05 11:18:08;;;;;;;2.60;1.77;;;7.70;99.90;;;;;;5041087;28;20160;-90
2020/12/05 11:20:34;;;;;;;3.53;1.37;;;7.80;99.90;;;;;;5051571;28;20168;-88
2020/12/05 11:22:59;;;;;;;4.70;1.43;;;8.00;99.90;;;;;;5036389;28;20223;-90
2020/12/05 11:25:25;;;;;;;0.83;0.83;;;7.80;99.90;;;;;;5002022;28;20207;-90
2020/12/05 11:27:51;;;;;;;2.40;1.60;;;7.70;99.90;;;;;;5026446;28;20811;-88
2020/12/05 11:30:17;;;;;;;1.60;1.13;;;7.70;99.90;;;;;;5048858;28;20184;-90
2020/12/05 11:32:43;;;;;;;4.63;1.30;;;7.60;99.90;;;;;;5045336;28;20262;-90
2020/12/05 11:35:09;;;;;;;3.00;1.13;;;7.70;99.90;;;;;;5047113;28;20184;-91
2020/12/05 11:37:38;;;;;;;4.80;1.50;;;7.80;99.90;;;;;;5036449;28;20259;-90
2020/12/05 11:40:04;;;;;;;2.23;1.07;;;7.80;99.90;;;;;;5035583;28;20174;-90
2020/12/05 11:42:33;;;;;;;1.27;1.00;;;8.60;99.90;;;;;;5051082;28;20247;-90
2020/12/05 11:45:00;;;;;;;7.10;4.77;;;9.50;99.90;;;;;;5052607;28;20201;-90
2020/12/05 11:47:26;;;;;;;3.63;3.30;;;10.80;99.90;;;;;;5034665;28;20168;-90
2020/12/05 11:53:13;;;;;;;5.78;1.50;;;12.10;99.90;;;;;;5035171;28;20532;-89
2020/12/05 11:55:39;;;;;;;9.02;4.70;;;12.00;99.90;;;;;;5034884;28;20204;-89
2020/12/05 11:58:05;;;;;;;2.03;1.50;;;11.50;99.90;;;;;;5018387;28;20183;-90
2020/12/05 12:00:38;;;;;;;4.85;4.45;;;10.60;99.90;;;;;;5020203;28;20252;-91
2020/12/05 12:06:26;;;;;;;3.70;2.17;;;9.10;99.90;;;;;;5037900;28;20163;-91
2020/12/05 12:08:55;;;;;;;2.43;2.23;;;9.00;99.90;;;;;;5026028;28;20180;-91
2020/12/05 12:11:20;;;;;;;4.70;2.00;;;8.80;99.90;;;;;;5029012;28;20274;-91
2020/12/05 12:13:56;;;;;;;2.23;1.20;;;8.80;99.90;;;;;;5042531;28;20195;-91
2020/12/05 12:16:22;;;;;;;2.80;1.40;;;9.10;99.90;;;;;;5041093;28;20195;-91
2020/12/05 12:18:48;;;;;;;3.27;1.37;;;9.40;99.90;;;;;;5024480;28;20230;-90
2020/12/05 12:21:20;;;;;;;3.73;1.57;;;9.10;99.90;;;;;;5025662;28;20497;-89
2020/12/05 12:23:51;;;;;;;1.87;1.40;;;8.90;99.90;;;;;;5042703;28;20179;-88
2020/12/05 12:26:17;;;;;;;6.87;1.60;;;8.80;99.90;;;;;;5038099;28;20376;-89
2020/12/05 12:28:50;;;;;;;4.73;1.90;;;8.60;99.90;;;;;;5023762;28;20226;-90
2020/12/05 12:31:19;;;;;;;6.53;1.33;;;8.40;99.90;;;;;;5019445;28;20183;-88
2020/12/05 12:33:44;;;;;;;6.83;2.00;;;8.10;99.90;;;;;;5037726;28;20218;-89
2020/12/05 12:36:10;;;;;;;5.20;1.92;;;8.10;99.90;;;;;;5021923;28;20766;-90
2020/12/05 12:38:37;;;;;;;2.63;1.30;;;8.10;99.90;;;;;;5022297;28;20180;-90
2020/12/05 12:41:03;;;;;;;4.77;1.23;;;8.10;99.90;;;;;;5038784;28;20303;-90
2020/12/05 12:43:29;;;;;;;6.47;1.20;;;8.00;99.90;;;;;;5032230;28;20202;-89
2020/12/05 12:45:54;;;;;;;2.43;1.47;;;7.90;99.90;;;;;;5040347;28;20617;-89
2020/12/05 12:51:13;;;;;;;24.43;13.97;;;7.90;99.90;;;;;;5040772;28;20181;-88
2020/12/05 12:53:39;;;;;;;17.87;10.53;;;7.90;99.90;;;;;;5021969;28;20184;-89
2020/12/05 12:56:05;;;;;;;26.10;12.60;;;8.00;99.90;;;;;;5039785;28;20180;-91
2020/12/05 12:58:46;;;;;;;34.03;16.57;;;7.90;99.90;;;;;;5040387;28;20254;-90
2020/12/05 13:01:15;;;;;;;39.70;17.20;;;7.80;99.90;;;;;;5041109;28;20171;-91
2020/12/05 13:03:44;;;;;;;50.87;24.03;;;7.70;99.90;;;;;;5034745;28;20648;-90
2020/12/05 13:06:19;;;;;;;112.13;51.87;;;7.50;99.90;;;;;;5005741;28;20181;-91
2020/12/05 13:08:46;;;;;;;26.27;13.77;;;7.60;99.90;;;;;;5017686;28;20172;-88
2020/12/05 13:11:13;;;;;;;20.50;13.07;;;7.70;99.90;;;;;;5016059;28;20231;-87
2020/12/05 13:13:39;;;;;;;2.60;2.17;;;7.50;99.90;;;;;;5017789;28;20172;-87